Time;durP1;ratioP1;P1;durP2;ratioP2;P2;SDS_P1;SDS_P2;PMS_P1;PMS_P2;Temp;Humidity;BMP_temperature;BMP_pressure;BME280_temperature;BME280_humidity;BME280_pressure;Samples;Min_cycle;Max_cycle;Signal;HPM_P1;HPM_P2
2023/03/21 00:00:24;;;;;;;23.75;14.15;;;9.20;99.90;;;;;;4916089;29;20044;-91
2023/03/21 00:02:49;;;;;;;25.75;13.23;;;9.20;99.90;;;;;;4917271;29;20067;-93
2023/03/21 00:05:15;;;;;;;25.60;14.40;;;9.20;99.90;;;;;;4927637;29;20487;-91
2023/03/21 00:07:41;;;;;;;23.27;13.70;;;9.20;99.90;;;;;;4911983;29;20134;-92
2023/03/21 00:10:10;;;;;;;22.67;13.35;;;9.20;99.90;;;;;;4918465;29;20083;-92
2023/03/21 00:12:36;;;;;;;23.73;13.55;;;9.20;99.90;;;;;;4926036;29;20044;-92
2023/03/21 00:15:06;;;;;;;22.90;12.40;;;9.20;99.90;;;;;;4929393;29;20056;-92
2023/03/21 00:17:35;;;;;;;21.35;12.80;;;9.20;99.90;;;;;;4927158;29;20039;-92
2023/03/21 00:20:06;;;;;;;25.02;14.32;;;9.20;99.90;;;;;;4912960;29;20098;-92
2023/03/21 00:22:35;;;;;;;22.23;12.65;;;9.20;99.90;;;;;;4903369;29;20090;-92
2023/03/21 00:25:01;;;;;;;20.13;12.25;;;9.20;99.90;;;;;;4923632;29;20046;-92
2023/03/21 00:27:33;;;;;;;25.05;13.20;;;9.20;99.90;;;;;;4926491;29;20040;-93
2023/03/21 00:29:58;;;;;;;25.10;12.68;;;9.30;99.90;;;;;;4903593;29;20092;-92
2023/03/21 00:32:24;;;;;;;24.70;13.18;;;9.20;99.90;;;;;;4922848;29;20039;-92
2023/03/21 00:34:51;;;;;;;27.02;12.57;;;9.20;99.90;;;;;;4916646;29;20078;-92
2023/03/21 00:37:17;;;;;;;23.10;13.32;;;9.30;99.90;;;;;;4909224;29;20044;-92
2023/03/21 00:39:47;;;;;;;27.70;14.38;;;9.20;99.90;;;;;;4908902;29;20047;-92
2023/03/21 00:42:14;;;;;;;34.88;16.05;;;9.20;99.90;;;;;;4914996;29;20131;-92
2023/03/21 00:44:41;;;;;;;36.85;16.95;;;9.30;99.90;;;;;;4929888;29;20056;-93
2023/03/21 00:47:11;;;;;;;38.38;17.48;;;9.30;99.90;;;;;;4911782;29;20119;-92
2023/03/21 00:49:37;;;;;;;46.92;19.92;;;9.30;99.90;;;;;;4904618;29;20059;-92
2023/03/21 00:52:08;;;;;;;49.30;19.38;;;9.60;99.90;;;;;;4912162;29;20043;-92
2023/03/21 00:54:35;;;;;;;40.55;17.38;;;9.20;99.90;;;;;;4924396;29;20040;-92
2023/03/21 00:57:04;;;;;;;60.67;22.83;;;9.70;99.90;;;;;;4934596;29;20042;-91
2023/03/21 00:59:30;;;;;;;47.40;20.15;;;9.20;99.90;;;;;;4907077;29;20056;-92
2023/03/21 01:01:59;;;;;;;51.42;21.10;;;9.30;99.90;;;;;;4920377;29;20487;-91
2023/03/21 01:04:26;;;;;;;49.67;19.95;;;9.20;99.90;;;;;;4900090;29;20070;-92
2023/03/21 01:06:53;;;;;;;53.58;21.83;;;9.20;99.90;;;;;;4923326;29;20050;-92
2023/03/21 01:09:21;;;;;;;56.15;23.25;;;9.20;99.90;;;;;;4909809;29;20040;-91
2023/03/21 01:11:47;;;;;;;54.20;22.70;;;9.20;99.90;;;;;;4921562;29;20115;-92
2023/03/21 01:14:15;;;;;;;64.60;24.58;;;9.20;99.90;;;;;;4910303;29;20122;-91
2023/03/21 01:16:41;;;;;;;70.35;25.98;;;9.20;99.90;;;;;;4924737;29;20114;-91
2023/03/21 01:19:08;;;;;;;60.35;25.70;;;9.20;99.90;;;;;;4911930;29;20055;-91
2023/03/21 01:21:34;;;;;;;73.35;26.52;;;9.20;99.90;;;;;;4930132;29;20497;-92
2023/03/21 01:24:00;;;;;;;61.97;25.48;;;9.20;99.90;;;;;;4913740;29;20102;-92
2023/03/21 01:26:27;;;;;;;55.65;23.35;;;9.20;99.90;;;;;;4915360;29;20043;-91
2023/03/21 01:28:52;;;;;;;64.75;26.20;;;9.20;99.90;;;;;;4925430;29;20050;-92
2023/03/21 01:31:18;;;;;;;56.45;22.90;;;9.60;99.90;;;;;;4909324;29;20133;-92
2023/03/21 01:33:45;;;;;;;47.58;21.08;;;9.20;99.90;;;;;;4911156;29;20128;-92
2023/03/21 01:36:18;;;;;;;56.90;23.02;;;9.20;99.90;;;;;;4916358;29;20044;-93
2023/03/21 01:38:44;;;;;;;51.75;22.17;;;9.30;99.90;;;;;;4913183;29;20052;-91
2023/03/21 01:41:35;;;;;;;54.58;21.95;;;9.20;99.90;;;;;;4924972;29;20051;-92
2023/03/21 01:44:00;;;;;;;50.58;21.55;;;9.20;99.90;;;;;;4923316;29;20044;-92
2023/03/21 01:46:38;;;;;;;55.53;24.48;;;9.40;99.90;;;;;;4915514;29;20066;-92
2023/03/21 01:49:14;;;;;;;55.78;23.60;;;9.30;99.90;;;;;;4923166;29;20127;-92
2023/03/21 01:51:51;;;;;;;55.90;24.65;;;9.20;99.90;;;;;;4909799;29;20058;-93
2023/03/21 01:54:24;;;;;;;56.88;22.75;;;9.20;99.90;;;;;;4918558;29;20095;-92
2023/03/21 01:56:52;;;;;;;52.72;22.25;;;9.20;99.90;;;;;;4908700;29;20119;-92
2023/03/21 01:59:33;;;;;;;42.97;20.35;;;9.20;99.90;;;;;;4924927;29;20035;-90
2023/03/21 02:02:06;;;;;;;43.60;19.35;;;9.20;99.90;;;;;;4908927;29;20028;-91
2023/03/21 02:04:34;;;;;;;44.72;23.13;;;9.30;99.90;;;;;;4926166;29;20046;-91
2023/03/21 02:07:09;;;;;;;53.35;23.30;;;9.30;99.90;;;;;;4904591;29;20110;-91
2023/03/21 02:09:39;;;;;;;43.42;20.27;;;9.30;99.90;;;;;;4921873;29;20048;-92
2023/03/21 02:12:07;;;;;;;46.75;21.80;;;9.30;99.90;;;;;;4927139;29;20090;-91
2023/03/21 02:14:35;;;;;;;44.70;21.17;;;9.30;99.90;;;;;;4910443;29;20067;-91
2023/03/21 02:17:06;;;;;;;43.47;22.15;;;9.30;99.90;;;;;;4913372;29;20090;-91
2023/03/21 02:19:53;;;;;;;52.08;21.98;;;9.30;99.90;;;;;;4917751;29;20055;-92
2023/03/21 02:22:19;;;;;;;49.00;22.85;;;9.30;99.90;;;;;;4925828;29;20446;-91
2023/03/21 02:25:14;;;;;;;42.13;21.42;;;9.30;99.90;;;;;;4922480;29;20071;-92
2023/03/21 02:28:02;;;;;;;43.95;20.27;;;9.40;99.90;;;;;;4904433;29;20055;-91
2023/03/21 02:30:29;;;;;;;42.78;21.35;;;9.30;99.90;;;;;;4924897;29;20071;-91
2023/03/21 02:33:13;;;;;;;48.88;23.25;;;9.30;99.90;;;;;;4909857;29;20043;-91
2023/03/21 02:36:03;;;;;;;45.70;21.65;;;9.30;99.90;;;;;;4919735;29;20522;-91
2023/03/21 02:38:32;;;;;;;46.08;22.58;;;9.30;99.90;;;;;;4921740;29;20066;-91
2023/03/21 02:41:24;;;;;;;42.38;22.15;;;9.30;99.90;;;;;;4914886;29;20360;-91
2023/03/21 02:44:43;;;;;;;47.05;22.17;;;9.30;99.90;;;;;;4902796;29;20107;-92
2023/03/21 02:47:19;;;;;;;42.33;21.13;;;9.30;99.90;;;;;;4852712;29;20045;-93
2023/03/21 02:49:56;;;;;;;40.97;21.10;;;9.30;99.90;;;;;;4867152;29;20065;-94
2023/03/21 02:52:28;;;;;;;42.92;19.67;;;9.40;99.90;;;;;;4852528;29;20177;-92
2023/03/21 02:54:57;;;;;;;39.35;19.17;;;9.30;99.90;;;;;;4841325;29;20592;-92
2023/03/21 02:57:23;;;;;;;39.90;18.98;;;9.30;99.90;;;;;;4854990;29;20073;-92
2023/03/21 02:59:52;;;;;;;35.40;17.13;;;9.30;99.90;;;;;;4853093;29;20045;-92
2023/03/21 03:02:25;;;;;;;36.33;18.92;;;9.30;99.90;;;;;;4854977;29;20105;-92
2023/03/21 03:04:50;;;;;;;38.80;18.20;;;9.30;99.90;;;;;;4871127;29;20053;-92
2023/03/21 03:07:54;;;;;;;39.15;19.00;;;9.30;99.90;;;;;;4855578;29;20049;-92
2023/03/21 03:10:41;;;;;;;35.72;16.83;;;9.30;99.90;;;;;;4789707;29;20212;-92
2023/03/21 03:13:09;;;;;;;36.15;18.13;;;9.30;99.90;;;;;;4808460;29;20081;-92
2023/03/21 03:16:24;;;;;;;35.70;17.85;;;9.30;99.90;;;;;;4813077;29;20086;-91
2023/03/21 03:18:54;;;;;;;31.70;15.63;;;9.30;99.90;;;;;;4790540;29;20077;-92
2023/03/21 03:21:31;;;;;;;33.83;16.17;;;9.30;99.90;;;;;;4818542;29;20600;-91
2023/03/21 03:24:03;;;;;;;32.38;16.15;;;9.30;99.90;;;;;;4838211;29;20049;-91
2023/03/21 03:26:34;;;;;;;29.95;14.38;;;9.30;99.90;;;;;;4853175;29;20060;-92
2023/03/21 03:29:07;;;;;;;29.33;15.05;;;9.30;99.90;;;;;;4854086;29;20133;-92
2023/03/21 03:31:38;;;;;;;27.52;14.57;;;9.30;99.90;;;;;;4834069;29;20401;-92
2023/03/21 03:34:11;;;;;;;31.77;15.48;;;9.30;99.90;;;;;;4853708;29;20057;-92
2023/03/21 03:36:40;;;;;;;29.77;13.52;;;9.30;99.90;;;;;;4853761;29;20037;-92
2023/03/21 03:39:10;;;;;;;26.25;14.05;;;9.50;99.90;;;;;;4822723;29;20041;-92
2023/03/21 03:41:50;;;;;;;24.13;13.25;;;9.30;99.90;;;;;;4838513;29;20057;-92
2023/03/21 03:44:16;;;;;;;26.08;13.27;;;9.50;99.90;;;;;;4857965;29;20127;-91
2023/03/21 03:46:54;;;;;;;25.48;13.68;;;9.30;99.90;;;;;;4899915;29;20127;-92
2023/03/21 03:49:24;;;;;;;24.50;13.35;;;9.80;99.90;;;;;;4924675;29;20035;-92
2023/03/21 03:51:49;;;;;;;25.05;14.07;;;9.30;99.90;;;;;;4919479;29;20183;-92
2023/03/21 03:54:21;;;;;;;24.88;13.32;;;9.30;99.90;;;;;;4918880;29;20817;-90
2023/03/21 03:56:47;;;;;;;24.85;13.80;;;9.30;99.90;;;;;;4922154;29;20077;-91
2023/03/21 03:59:18;;;;;;;24.15;13.20;;;9.30;99.90;;;;;;4919223;29;20221;-91
2023/03/21 04:01:44;;;;;;;25.60;14.13;;;9.30;99.90;;;;;;4919744;29;20054;-91
2023/03/21 04:04:10;;;;;;;22.88;12.40;;;9.30;99.90;;;;;;4912003;29;20126;-90
2023/03/21 04:06:37;;;;;;;27.25;13.85;;;9.30;99.90;;;;;;4901920;29;20048;-89
2023/03/21 04:09:04;;;;;;;23.48;12.50;;;9.30;99.90;;;;;;4903872;29;20043;-90
2023/03/21 04:11:30;;;;;;;24.88;13.93;;;9.30;99.90;;;;;;4921078;29;20100;-91
2023/03/21 04:13:55;;;;;;;28.08;14.20;;;9.30;99.90;;;;;;4917883;29;20059;-90
2023/03/21 04:16:22;;;;;;;27.90;14.80;;;9.30;99.90;;;;;;4914541;29;20047;-90
2023/03/21 04:18:48;;;;;;;26.20;12.98;;;9.30;99.90;;;;;;4912776;29;20052;-91
2023/03/21 04:21:14;;;;;;;26.65;14.38;;;9.30;99.90;;;;;;4902950;29;20095;-90
2023/03/21 04:23:40;;;;;;;26.52;13.90;;;9.30;99.90;;;;;;4920233;29;20513;-91
2023/03/21 04:26:06;;;;;;;26.98;13.80;;;9.30;99.90;;;;;;4922013;29;20039;-90
2023/03/21 04:28:34;;;;;;;26.45;14.40;;;9.30;99.90;;;;;;4911256;29;20252;-90
2023/03/21 04:31:01;;;;;;;28.85;15.13;;;9.30;99.90;;;;;;4919818;29;20088;-92
2023/03/21 04:33:27;;;;;;;26.55;14.43;;;9.30;99.90;;;;;;4920054;29;20119;-91
2023/03/21 04:35:57;;;;;;;25.60;14.05;;;9.30;99.90;;;;;;4908629;29;20118;-91
2023/03/21 04:38:25;;;;;;;28.80;14.63;;;9.30;99.90;;;;;;4920598;29;20044;-90
2023/03/21 04:40:51;;;;;;;27.17;13.90;;;9.30;99.90;;;;;;4908162;29;20047;-90
2023/03/21 04:43:17;;;;;;;27.08;13.75;;;9.30;99.90;;;;;;4927441;29;20038;-91
2023/03/21 04:45:43;;;;;;;29.42;14.68;;;9.30;99.90;;;;;;4918967;29;20052;-90
2023/03/21 04:48:08;;;;;;;30.38;15.07;;;9.30;99.90;;;;;;4908054;29;20044;-90
2023/03/21 04:50:34;;;;;;;25.25;13.60;;;9.30;99.90;;;;;;4919127;29;20248;-91
2023/03/21 04:53:00;;;;;;;23.20;11.55;;;9.30;99.90;;;;;;4906074;29;20406;-90
2023/03/21 04:55:28;;;;;;;28.05;13.57;;;9.30;99.90;;;;;;4916689;29;20486;-91
2023/03/21 04:57:53;;;;;;;24.60;13.05;;;9.30;99.90;;;;;;4919041;29;20554;-90
2023/03/21 05:00:19;;;;;;;27.88;13.38;;;9.30;99.90;;;;;;4919284;29;20479;-91
2023/03/21 05:02:45;;;;;;;26.83;13.82;;;9.30;99.90;;;;;;4929580;29;20480;-90
2023/03/21 05:05:14;;;;;;;25.50;12.73;;;9.30;99.90;;;;;;4904334;29;20563;-91
2023/03/21 05:07:40;;;;;;;25.25;14.02;;;9.30;99.90;;;;;;4920015;29;20073;-90
2023/03/21 05:10:08;;;;;;;26.77;13.82;;;9.30;99.90;;;;;;4906979;29;20047;-91
2023/03/21 05:12:34;;;;;;;23.00;12.43;;;9.30;99.90;;;;;;4901665;29;20496;-90
2023/03/21 05:15:00;;;;;;;23.23;12.00;;;9.30;99.90;;;;;;4892166;29;20058;-91
2023/03/21 05:17:27;;;;;;;24.25;11.13;;;9.30;99.90;;;;;;4901097;29;20049;-91
2023/03/21 05:19:55;;;;;;;23.95;12.55;;;9.30;99.90;;;;;;4909110;29;20051;-90
2023/03/21 05:22:23;;;;;;;24.83;13.25;;;9.30;99.90;;;;;;4916569;29;20047;-91
2023/03/21 05:24:49;;;;;;;24.58;12.70;;;9.30;99.90;;;;;;4909332;29;20059;-91
2023/03/21 05:27:33;;;;;;;27.15;14.10;;;9.30;99.90;;;;;;4914066;29;20047;-91
2023/03/21 05:30:05;;;;;;;24.05;12.75;;;9.30;99.90;;;;;;4923091;29;20070;-91
2023/03/21 05:32:31;;;;;;;28.58;13.52;;;9.30;99.90;;;;;;4913059;29;20591;-90
2023/03/21 05:34:57;;;;;;;26.67;13.38;;;9.30;99.90;;;;;;4917652;29;20047;-92
2023/03/21 05:37:23;;;;;;;26.60;13.13;;;9.30;99.90;;;;;;4928529;29;20411;-90
2023/03/21 05:39:49;;;;;;;29.02;13.68;;;9.70;99.90;;;;;;4917368;29;20036;-91
2023/03/21 05:42:15;;;;;;;26.77;13.98;;;9.60;99.90;;;;;;4912361;29;20067;-91
2023/03/21 05:44:40;;;;;;;26.52;12.68;;;9.30;99.90;;;;;;4912547;29;20549;-96
2023/03/21 06:27:27;;;;;;;31.00;16.27;;;9.30;99.90;;;;;;4921866;29;20947;-88
2023/03/21 06:29:56;;;;;;;33.08;17.73;;;9.40;99.90;;;;;;4914359;29;20051;-90
2023/03/21 06:32:26;;;;;;;28.00;15.13;;;9.30;99.90;;;;;;4911673;29;20119;-90
2023/03/21 06:34:52;;;;;;;27.52;15.75;;;9.30;99.90;;;;;;4930178;29;20131;-94
2023/03/21 06:37:18;;;;;;;30.73;17.08;;;9.40;99.90;;;;;;4911705;29;20036;-89
2023/03/21 06:39:45;;;;;;;27.63;15.65;;;9.30;99.90;;;;;;4900776;29;20108;-90
2023/03/21 06:42:12;;;;;;;29.95;18.05;;;9.30;99.90;;;;;;4898091;29;20043;-90
2023/03/21 06:44:41;;;;;;;27.90;15.88;;;9.30;99.90;;;;;;4922990;29;20059;-87
2023/03/21 06:47:19;;;;;;;30.95;16.42;;;9.30;99.90;;;;;;4896791;29;20048;-94
2023/03/21 06:49:48;;;;;;;29.33;15.93;;;9.40;99.90;;;;;;4911743;29;20048;-92
2023/03/21 06:52:22;;;;;;;30.30;17.73;;;9.30;99.90;;;;;;4905315;29;20086;-91
2023/03/21 06:54:51;;;;;;;27.55;15.82;;;9.40;99.90;;;;;;4916082;29;20551;-91
2023/03/21 07:00:07;;;;;;;26.70;14.85;;;9.40;99.90;;;;;;4933183;23;20052;-95
2023/03/21 07:05:11;;;;;;;25.65;16.17;;;9.40;99.90;;;;;;5082975;23;20127;-95
2023/03/21 07:07:40;;;;;;;32.30;17.52;;;8.60;99.90;;;;;;4879536;29;20095;-95
2023/03/21 07:10:09;;;;;;;28.65;15.90;;;9.40;99.90;;;;;;4903238;29;20040;-95
2023/03/21 07:12:35;;;;;;;27.30;15.20;;;9.40;99.90;;;;;;4910533;29;20495;-88
2023/03/21 07:15:03;;;;;;;24.65;14.55;;;9.40;99.90;;;;;;4914797;29;20046;-90
2023/03/21 07:17:36;;;;;;;22.60;14.05;;;9.50;99.90;;;;;;4913101;29;20047;-94
2023/03/21 07:20:06;;;;;;;23.88;13.48;;;9.50;99.90;;;;;;5009749;23;20055;-94
2023/03/21 07:22:32;;;;;;;20.10;11.88;;;9.50;99.90;;;;;;4891786;29;20138;-94
2023/03/21 07:24:58;;;;;;;20.88;12.40;;;10.70;99.90;;;;;;4901892;29;20063;-90
2023/03/21 07:27:27;;;;;;;22.02;14.27;;;10.60;99.90;;;;;;4887965;29;20103;-90
2023/03/21 07:29:52;;;;;;;23.45;12.75;;;9.50;99.90;;;;;;4914073;29;20068;-89
2023/03/21 07:32:18;;;;;;;21.70;12.80;;;9.50;99.90;;;;;;4898510;29;20052;-89
2023/03/21 07:34:44;;;;;;;22.48;13.55;;;9.50;99.90;;;;;;4912515;29;20574;-88
2023/03/21 07:37:09;;;;;;;20.33;12.52;;;9.60;99.90;;;;;;4930970;29;20051;-89
2023/03/21 07:39:35;;;;;;;22.83;12.93;;;9.60;99.90;;;;;;4895406;29;20131;-94
2023/03/21 07:42:01;;;;;;;18.98;11.80;;;9.60;99.90;;;;;;4897669;29;20484;-91
2023/03/21 07:44:28;;;;;;;19.50;11.88;;;9.60;99.90;;;;;;4914106;29;20043;-91
2023/03/21 07:46:54;;;;;;;18.23;10.35;;;9.60;99.90;;;;;;4914496;29;20052;-92
2023/03/21 07:49:19;;;;;;;19.73;11.35;;;9.60;99.90;;;;;;4903190;29;20040;-92
2023/03/21 07:51:45;;;;;;;18.92;10.60;;;9.60;99.90;;;;;;4914373;29;20142;-91
2023/03/21 07:54:11;;;;;;;17.55;9.85;;;9.70;99.90;;;;;;4901913;29;20044;-91
2023/03/21 07:56:36;;;;;;;16.70;9.45;;;9.70;99.90;;;;;;4898884;29;20059;-92
2023/03/21 07:59:04;;;;;;;17.30;9.90;;;9.70;99.90;;;;;;4912730;29;20040;-92
2023/03/21 08:01:32;;;;;;;17.00;9.57;;;9.70;99.90;;;;;;4918726;29;20052;-92
2023/03/21 08:03:58;;;;;;;17.30;8.95;;;9.10;99.90;;;;;;4904623;29;20048;-91
2023/03/21 08:06:26;;;;;;;15.43;8.13;;;9.70;99.90;;;;;;4901490;29;20048;-92
2023/03/21 08:08:52;;;;;;;13.15;8.07;;;9.70;99.90;;;;;;4918988;29;20036;-92
2023/03/21 08:11:20;;;;;;;15.30;8.30;;;9.70;99.90;;;;;;4924143;29;20103;-92
2023/03/21 08:13:46;;;;;;;13.23;7.47;;;9.70;99.90;;;;;;4927431;29;20068;-93
2023/03/21 08:16:12;;;;;;;11.48;7.25;;;9.70;99.90;;;;;;4905550;29;20044;-92
2023/03/21 08:18:38;;;;;;;12.27;7.45;;;9.70;99.90;;;;;;4901276;29;20048;-92
2023/03/21 08:21:03;;;;;;;12.57;8.10;;;9.70;99.90;;;;;;4917994;29;20044;-92
2023/03/21 08:23:29;;;;;;;12.57;8.02;;;9.70;99.90;;;;;;4905643;29;20632;-92
2023/03/21 08:25:56;;;;;;;13.38;9.50;;;9.70;99.90;;;;;;4901410;29;20091;-90
2023/03/21 08:28:22;;;;;;;11.90;8.32;;;9.70;99.90;;;;;;4917335;29;20044;-92
2023/03/21 08:30:48;;;;;;;14.90;9.50;;;9.70;99.90;;;;;;4923711;29;20506;-92
2023/03/21 08:33:16;;;;;;;14.38;9.85;;;9.70;99.90;;;;;;4917132;29;20048;-91
2023/03/21 08:35:42;;;;;;;15.25;10.13;;;9.70;99.90;;;;;;4924219;29;20455;-92
2023/03/21 08:38:08;;;;;;;16.80;10.65;;;9.70;99.90;;;;;;4917298;29;20036;-91
2023/03/21 08:40:35;;;;;;;13.73;9.38;;;9.70;99.90;;;;;;4917389;29;20595;-92
2023/03/21 08:43:01;;;;;;;14.13;10.07;;;9.70;99.90;;;;;;4908321;29;20115;-91
2023/03/21 08:45:26;;;;;;;17.05;10.95;;;9.70;99.90;;;;;;4902544;29;20055;-91
2023/03/21 08:47:53;;;;;;;13.45;9.70;;;9.70;99.90;;;;;;4900691;29;20047;-92
2023/03/21 08:50:25;;;;;;;16.63;10.65;;;9.80;99.90;;;;;;4900376;29;20040;-92
2023/03/21 08:52:51;;;;;;;16.95;9.95;;;9.70;99.90;;;;;;4900475;29;20102;-92
2023/03/21 08:55:18;;;;;;;14.90;9.93;;;9.70;99.90;;;;;;4917108;29;20051;-92
2023/03/21 08:57:45;;;;;;;15.20;9.82;;;9.70;99.90;;;;;;4906360;29;20083;-92
2023/03/21 09:00:16;;;;;;;16.40;10.35;;;9.70;99.90;;;;;;4916589;29;20038;-92
2023/03/21 09:02:44;;;;;;;16.13;10.45;;;9.70;99.90;;;;;;4918735;29;20058;-92
2023/03/21 09:05:11;;;;;;;17.02;10.68;;;9.70;99.90;;;;;;4900448;29;20051;-92
2023/03/21 09:07:40;;;;;;;18.35;10.98;;;9.80;99.90;;;;;;4918657;29;20044;-91
2023/03/21 09:10:09;;;;;;;16.58;10.68;;;9.80;99.90;;;;;;4915142;29;20051;-92
2023/03/21 09:12:35;;;;;;;17.30;11.15;;;9.80;99.90;;;;;;4904915;29;20059;-92
2023/03/21 09:15:01;;;;;;;16.85;10.43;;;10.00;99.90;;;;;;4916893;29;20495;-92
2023/03/21 09:17:33;;;;;;;16.42;10.80;;;9.80;99.90;;;;;;4917239;29;20503;-93
2023/03/21 09:20:09;;;;;;;20.30;12.60;;;9.80;99.90;;;;;;4921459;29;20071;-92
2023/03/21 09:22:36;;;;;;;18.88;11.43;;;9.90;99.90;;;;;;4896824;29;20056;-91
2023/03/21 09:25:06;;;;;;;17.85;11.52;;;9.90;99.90;;;;;;4910537;29;20388;-92
2023/03/21 09:27:32;;;;;;;21.95;13.43;;;9.90;99.90;;;;;;4899398;29;20056;-92
2023/03/21 09:29:59;;;;;;;20.60;12.35;;;9.90;99.90;;;;;;4896763;29;20044;-91
2023/03/21 09:32:28;;;;;;;19.38;10.80;;;9.90;99.90;;;;;;4900276;29;20467;-92
2023/03/21 09:34:54;;;;;;;19.77;11.98;;;9.90;99.90;;;;;;4917524;29;20059;-92
2023/03/21 09:37:20;;;;;;;18.08;12.40;;;9.90;99.90;;;;;;4899462;29;20040;-92
2023/03/21 09:39:49;;;;;;;24.60;13.65;;;9.90;99.90;;;;;;4905378;29;20048;-92
2023/03/21 09:42:30;;;;;;;23.25;13.82;;;9.90;99.90;;;;;;4886897;29;20068;-92
2023/03/21 09:45:21;;;;;;;22.42;13.63;;;9.90;99.90;;;;;;4904257;29;20056;-91
2023/03/21 09:47:55;;;;;;;25.73;13.60;;;9.90;99.90;;;;;;4905709;29;20058;-92
2023/03/21 09:50:40;;;;;;;22.02;13.18;;;9.90;99.90;;;;;;4896250;29;20475;-92
2023/03/21 09:53:17;;;;;;;21.23;14.35;;;9.90;99.90;;;;;;4898950;29;20127;-91
2023/03/21 09:55:44;;;;;;;21.80;11.70;;;9.90;99.90;;;;;;4903546;29;20127;-92
2023/03/21 09:58:31;;;;;;;26.10;15.23;;;9.90;99.90;;;;;;4916518;29;20040;-92
2023/03/21 10:01:09;;;;;;;25.17;15.00;;;9.90;99.90;;;;;;4902732;29;20395;-92
2023/03/21 10:03:35;;;;;;;24.30;14.30;;;9.80;99.90;;;;;;4915976;29;20507;-92
2023/03/21 10:06:12;;;;;;;22.35;14.18;;;9.80;99.90;;;;;;4914753;29;20040;-91
2023/03/21 10:08:44;;;;;;;26.65;15.57;;;9.80;99.90;;;;;;4899144;29;20071;-91
2023/03/21 10:11:30;;;;;;;24.98;16.70;;;9.80;99.90;;;;;;4898172;29;20044;-92
2023/03/21 10:13:58;;;;;;;28.55;17.05;;;9.80;99.90;;;;;;4901935;29;20071;-92
2023/03/21 10:16:34;;;;;;;28.42;16.92;;;9.80;99.90;;;;;;4912849;29;20051;-91
2023/03/21 10:19:27;;;;;;;26.52;16.70;;;9.80;99.90;;;;;;4898252;29;20162;-90
2023/03/21 10:21:52;;;;;;;29.95;18.45;;;9.80;99.90;;;;;;4870796;29;20060;-91
2023/03/21 10:24:24;;;;;;;35.58;19.90;;;9.80;99.90;;;;;;4878786;29;20047;-91
2023/03/21 10:26:51;;;;;;;29.17;17.92;;;9.80;99.90;;;;;;4879586;29;20055;-92
2023/03/21 10:29:21;;;;;;;27.30;16.58;;;9.80;99.90;;;;;;4882151;29;20500;-92
2023/03/21 10:31:48;;;;;;;29.17;17.70;;;9.80;99.90;;;;;;4879784;29;20056;-91
2023/03/21 10:34:17;;;;;;;25.85;16.95;;;9.80;99.90;;;;;;4880096;29;20048;-91
2023/03/21 10:36:43;;;;;;;27.23;17.85;;;9.80;99.90;;;;;;4896702;29;20123;-91
2023/03/21 10:39:39;;;;;;;30.17;17.58;;;9.80;99.90;;;;;;4884533;29;20419;-92
2023/03/21 10:42:25;;;;;;;35.58;19.23;;;9.80;99.90;;;;;;4867828;29;20056;-92
2023/03/21 10:44:53;;;;;;;29.17;18.73;;;9.80;99.90;;;;;;4887194;29;20057;-92
2023/03/21 10:47:23;;;;;;;28.88;18.58;;;9.80;99.90;;;;;;4898503;29;20051;-91
2023/03/21 10:49:49;;;;;;;28.27;16.70;;;9.80;99.90;;;;;;4882627;29;20483;-91
2023/03/21 10:52:19;;;;;;;24.77;16.70;;;9.90;99.90;;;;;;4891454;29;20487;-92
2023/03/21 10:54:47;;;;;;;30.05;16.17;;;9.90;99.90;;;;;;4883797;29;20088;-91
2023/03/21 10:57:24;;;;;;;27.48;16.00;;;10.20;99.90;;;;;;4885830;29;20052;-92
2023/03/21 10:59:59;;;;;;;25.23;14.70;;;10.00;99.90;;;;;;4901481;29;20044;-92
2023/03/21 11:02:29;;;;;;;24.55;15.77;;;10.00;99.90;;;;;;4899956;29;20032;-91
2023/03/21 11:04:57;;;;;;;25.65;15.27;;;10.00;99.90;;;;;;4897629;29;20052;-91
2023/03/21 11:07:29;;;;;;;27.70;15.88;;;10.30;99.90;;;;;;4887947;29;20532;-92
2023/03/21 11:09:59;;;;;;;23.45;15.18;;;10.20;99.90;;;;;;4901564;29;20036;-92
2023/03/21 11:12:39;;;;;;;27.65;15.57;;;10.20;99.90;;;;;;4884086;29;20044;-91
2023/03/21 11:15:29;;;;;;;25.83;15.02;;;10.30;99.90;;;;;;4898381;29;20083;-91
2023/03/21 11:17:55;;;;;;;24.48;15.32;;;10.40;99.90;;;;;;4860645;29;20053;-92
2023/03/21 11:20:21;;;;;;;24.13;15.48;;;10.50;99.90;;;;;;4910724;29;20051;-91
2023/03/21 11:22:53;;;;;;;28.58;15.07;;;10.50;99.90;;;;;;4913983;29;20044;-91
2023/03/21 11:25:26;;;;;;;25.33;14.15;;;10.60;99.90;;;;;;4914885;29;20036;-91
2023/03/21 11:27:55;;;;;;;22.80;12.48;;;10.70;99.90;;;;;;4897662;29;20044;-91
2023/03/21 11:30:24;;;;;;;19.35;12.63;;;10.70;99.90;;;;;;4912324;29;20122;-91
2023/03/21 11:32:55;;;;;;;21.83;12.63;;;10.70;99.90;;;;;;4905273;29;20052;-91
2023/03/21 11:35:26;;;;;;;22.80;12.45;;;10.80;99.90;;;;;;4919919;29;20044;-91
2023/03/21 11:37:54;;;;;;;22.27;12.65;;;10.80;99.90;;;;;;4914050;29;20074;-91
2023/03/21 11:40:33;;;;;;;24.33;13.50;;;10.90;99.90;;;;;;4918290;29;20530;-92
2023/03/21 11:43:00;;;;;;;22.35;12.30;;;10.90;99.90;;;;;;4898590;29;20048;-91
2023/03/21 11:45:37;;;;;;;17.27;11.20;;;10.90;99.90;;;;;;4900553;29;20064;-91
2023/03/21 11:48:11;;;;;;;18.10;11.23;;;11.00;99.90;;;;;;4899515;29;20578;-93
2023/03/21 11:50:40;;;;;;;;;;;11.10;99.90;;;;;;4901713;29;20055;-90
2023/03/21 11:53:25;;;;;;;19.48;11.38;;;11.10;99.90;;;;;;4913125;29;19922;-91
2023/03/21 11:56:06;;;;;;;17.33;10.95;;;11.10;99.90;;;;;;4923336;29;20044;-91
2023/03/21 11:58:35;;;;;;;18.08;10.93;;;11.10;99.90;;;;;;4914351;29;20044;-91
2023/03/21 12:01:21;;;;;;;25.40;11.75;;;11.10;99.90;;;;;;4922577;29;20051;-92
2023/03/21 12:03:57;;;;;;;20.77;11.63;;;11.20;99.90;;;;;;4926407;29;20047;-90
2023/03/21 12:06:40;;;;;;;22.80;11.55;;;11.20;99.90;;;;;;4924059;29;20094;-92
2023/03/21 12:09:15;;;;;;;17.63;11.20;;;11.20;99.90;;;;;;4897099;29;20058;-91
2023/03/21 12:12:08;;;;;;;20.15;10.57;;;11.30;99.90;;;;;;4919948;29;20050;-91
2023/03/21 12:14:43;;;;;;;23.15;11.05;;;11.30;99.90;;;;;;4910255;29;20087;-91
2023/03/21 12:17:45;;;;;;;19.30;9.63;;;11.30;99.90;;;;;;4918140;29;20052;-92
2023/03/21 12:20:16;;;;;;;22.27;10.95;;;11.30;99.90;;;;;;4903504;29;20053;-91
2023/03/21 12:23:11;;;;;;;18.30;10.25;;;11.30;99.90;;;;;;4894111;29;20131;-90
2023/03/21 12:25:45;;;;;;;17.60;10.55;;;11.30;99.90;;;;;;4894473;29;20210;-92
2023/03/21 12:28:31;;;;;;;16.83;11.25;;;11.30;99.90;;;;;;4896512;29;20124;-91
2023/03/21 12:31:20;;;;;;;20.55;11.60;;;11.40;99.90;;;;;;4895965;29;20033;-91
2023/03/21 12:34:11;;;;;;;18.55;10.52;;;11.40;99.90;;;;;;4872848;29;20132;-93
2023/03/21 12:37:00;;;;;;;20.00;10.82;;;11.30;99.90;;;;;;4888903;29;20052;-91
2023/03/21 12:39:32;;;;;;;17.70;10.07;;;11.30;99.90;;;;;;4893755;29;20052;-92
2023/03/21 12:42:28;;;;;;;18.48;10.82;;;11.30;99.90;;;;;;4902098;29;20051;-91
2023/03/21 12:45:02;;;;;;;19.45;10.77;;;11.20;99.90;;;;;;4911756;29;20067;-92
2023/03/21 12:47:31;;;;;;;20.50;10.73;;;11.20;99.90;;;;;;4899711;29;20076;-92
2023/03/21 12:50:19;;;;;;;16.10;8.98;;;11.20;99.90;;;;;;4906299;29;20055;-92
2023/03/21 12:55:25;;;;;;;18.88;9.23;;;11.10;99.90;;;;;;4996731;23;20063;-93
2023/03/21 12:58:07;;;;;;;15.32;9.50;;;11.10;99.90;;;;;;4933081;29;20344;-93
2023/03/21 13:00:56;;;;;;;16.38;9.50;;;11.10;99.90;;;;;;4901982;29;20466;-93
2023/03/21 13:03:32;;;;;;;15.50;8.93;;;11.20;99.90;;;;;;4915285;29;20055;-93
2023/03/21 13:06:09;;;;;;;16.90;9.07;;;11.20;99.90;;;;;;4913611;29;20582;-94
2023/03/21 13:09:05;;;;;;;14.27;8.23;;;11.20;99.90;;;;;;4913354;29;20047;-93
2023/03/21 13:11:32;;;;;;;16.83;9.43;;;11.50;99.90;;;;;;4868048;29;20128;-94
2023/03/21 13:14:05;;;;;;;16.13;9.32;;;11.20;99.90;;;;;;4925274;29;20197;-95
2023/03/21 13:16:50;;;;;;;20.15;9.68;;;11.70;99.90;;;;;;4920861;29;20394;-92
2023/03/21 13:19:30;;;;;;;13.18;8.25;;;11.30;99.90;;;;;;4932096;29;20048;-92
2023/03/21 13:22:26;;;;;;;14.82;8.32;;;11.30;99.90;;;;;;4916802;29;20084;-92
2023/03/21 13:25:18;;;;;;;18.02;9.75;;;11.30;99.90;;;;;;4907453;29;20211;-89
2023/03/21 13:27:53;;;;;;;21.00;9.27;;;11.40;99.90;;;;;;4928740;29;20114;-90
2023/03/21 13:30:25;;;;;;;16.08;8.93;;;11.60;99.90;;;;;;4931562;29;20035;-89
2023/03/21 13:33:02;;;;;;;13.73;8.80;;;11.60;99.90;;;;;;4926002;29;20044;-91
2023/03/21 13:35:41;;;;;;;14.55;8.80;;;11.70;99.90;;;;;;4915830;29;20095;-89
2023/03/21 13:38:25;;;;;;;16.30;8.52;;;11.80;99.90;;;;;;4928740;29;20058;-90
2023/03/21 13:41:01;;;;;;;14.10;8.48;;;11.80;99.90;;;;;;4929619;29;20047;-89
2023/03/21 13:43:39;;;;;;;17.20;9.07;;;11.90;99.90;;;;;;4928877;29;20063;-90
2023/03/21 13:46:11;;;;;;;18.10;8.70;;;11.90;99.90;;;;;;4902645;29;20083;-89